Time;durP1;ratioP1;P1;durP2;ratioP2;P2;SDS_P1;SDS_P2;PMS_P1;PMS_P2;Temp;Humidity;BMP_temperature;BMP_pressure;BME280_temperature;BME280_humidity;BME280_pressure;Samples;Min_cycle;Max_cycle;Signal;HPM_P1;HPM_P2
2022/05/08 00:02:07;;;;;;;;;;;;;;;;;;5066512;28;1371;-77
2022/05/08 00:04:33;;;;;;;;;;;;;;;;;;5065489;28;1156;-77
2022/05/08 00:07:02;;;;;;;;;;;;;;;;;;5049837;28;1902;-76
2022/05/08 00:09:28;;;;;;;;;;;;;;;;;;5066221;28;1148;-76
2022/05/08 00:11:53;;;;;;;;;;;;;;;;;;5062504;28;1273;-77
2022/05/08 00:14:18;;;;;;;;;;;;;;;;;;5064935;28;1219;-77
2022/05/08 00:16:44;;;;;;;;;;;;;;;;;;5067346;28;1210;-78
2022/05/08 00:19:09;;;;;;;;;;;;;;;;;;5047714;28;1326;-76
2022/05/08 00:21:34;;;;;;;;;;;;;;;;;;5065996;28;1140;-77
2022/05/08 00:24:06;;;;;;;;;;;;;;;;;;5048437;28;1313;-78
2022/05/08 00:26:31;;;;;;;;;;;;;;;;;;5083414;28;1890;-78
2022/05/08 00:28:57;;;;;;;;;;;;;;;;;;5085395;28;1435;-78
2022/05/08 00:31:22;;;;;;;;;;;;;;;;;;5083860;28;1322;-78
2022/05/08 00:33:47;;;;;;;;;;;;;;;;;;5099479;28;1237;-75
2022/05/08 00:36:13;;;;;;;;;;;;;;;;;;5081862;28;1362;-77
2022/05/08 00:38:38;;;;;;;;;;;;;;;;;;5083175;28;1204;-77
2022/05/08 00:41:10;;;;;;;;;;;;;;;;;;5086479;28;1172;-77
2022/05/08 00:43:38;;;;;;;;;;;;;;;;;;5085959;28;1415;-77
2022/05/08 00:46:13;;;;;;;;;;;;;;;;;;5083622;28;1909;-77
2022/05/08 00:48:39;;;;;;;;;;;;;;;;;;5083044;28;1172;-77
2022/05/08 00:51:06;;;;;;;;;;;;;;;;;;5087131;28;1231;-76
2022/05/08 00:53:38;;;;;;;;;;;;;;;;;;5082212;28;1192;-77
2022/05/08 00:56:08;;;;;;;;;;;;;;;;;;5079935;28;1426;-77
2022/05/08 00:58:34;;;;;;;;;;;;;;;;;;5083097;28;1273;-77
2022/05/08 01:00:59;;;;;;;;;;;;;;;;;;5083840;28;1215;-77
2022/05/08 01:03:25;;;;;;;;;;;;;;;;;;5080793;28;1342;-77
2022/05/08 01:05:54;;;;;;;;;;;;;;;;;;5067520;28;1902;-77
2022/05/08 01:08:21;;;;;;;;;;;;;;;;;;5081427;28;1057;-77
2022/05/08 01:10:46;;;;;;;;;;;;;;;;;;5083991;28;1182;-77
2022/05/08 01:13:12;;;;;;;;;;;;;;;;;;5078785;28;1129;-77
2022/05/08 01:15:41;;;;;;;;;;;;;;;;;;5078842;28;1216;-77
2022/05/08 01:18:09;;;;;;;;;;;;;;;;;;5068532;28;1215;-77
2022/05/08 01:20:35;;;;;;;;;;;;;;;;;;5066275;28;1148;-77
2022/05/08 01:23:10;;;;;;;;;;;;;;;;;;5081429;28;1183;-77
2022/05/08 01:25:43;;;;;;;;;;;;;;;;;;5081667;28;1897;-77
2022/05/08 01:28:12;;;;;;;;;;;;;;;;;;5082081;28;1382;-77
2022/05/08 01:30:41;;;;;;;;;;;;;;;;;;5066743;28;1198;-77
2022/05/08 01:33:12;;;;;;;;;;;;;;;;;;5066607;28;1199;-77
2022/05/08 01:35:38;;;;;;;;;;;;;;;;;;5067070;28;1239;-77
2022/05/08 01:38:22;;;;;;;;;;;;;;;;;;5084073;28;1068;-77
2022/05/08 01:40:47;;;;;;;;;;;;;;;;;;5064994;28;1171;-77
2022/05/08 01:43:13;;;;;;;;;;;;;;;;;;5063457;28;1202;-76
2022/05/08 01:45:39;;;;;;;;;;;;;;;;;;5052301;28;1988;-76
2022/05/08 01:48:23;;;;;;;;;;;;;;;;;;5088074;28;1210;-75
2022/05/08 01:50:55;;;;;;;;;;;;;;;;;;5088284;28;1151;-76
2022/05/08 01:53:21;;;;;;;;;;;;;;;;;;5084529;28;1132;-77
2022/05/08 01:55:49;;;;;;;;;;;;;;;;;;5085183;28;1139;-76
2022/05/08 01:58:15;;;;;;;;;;;;;;;;;;5067501;28;1261;-77
2022/05/08 02:00:40;;;;;;;;;;;;;;;;;;5054077;28;1283;-77
2022/05/08 02:03:06;;;;;;;;;;;;;;;;;;5070372;28;1184;-76
2022/05/08 02:05:31;;;;;;;;;;;;;;;;;;5085471;28;1966;-76
2022/05/08 02:07:57;;;;;;;;;;;;;;;;;;5069544;28;1530;-76
2022/05/08 02:10:23;;;;;;;;;;;;;;;;;;5070207;28;1494;-76
2022/05/08 02:12:48;;;;;;;;;;;;;;;;;;5049287;28;1195;-76
2022/05/08 02:15:17;;;;;;;;;;;;;;;;;;5067671;28;1203;-76
2022/05/08 02:17:42;;;;;;;;;;;;;;;;;;5053743;28;1191;-76
2022/05/08 02:20:08;;;;;;;;;;;;;;;;;;5087442;28;1143;-77
2022/05/08 02:22:34;;;;;;;;;;;;;;;;;;5087038;28;1120;-75
2022/05/08 02:24:59;;;;;;;;;;;;;;;;;;5066363;28;1897;-76
2022/05/08 02:27:25;;;;;;;;;;;;;;;;;;5099728;28;1439;-76
2022/05/08 02:29:53;;;;;;;;;;;;;;;;;;5102931;28;1227;-76
2022/05/08 02:32:18;;;;;;;;;;;;;;;;;;5092899;28;1258;-76
2022/05/08 02:34:44;;;;;;;;;;;;;;;;;;5104702;28;1084;-76
2022/05/08 02:37:09;;;;;;;;;;;;;;;;;;5090453;28;1147;-76
2022/05/08 02:39:37;;;;;;;;;;;;;;;;;;5083920;28;1152;-77
2022/05/08 02:42:02;;;;;;;;;;;;;;;;;;5085272;28;1440;-77
2022/05/08 02:44:28;;;;;;;;;;;;;;;;;;5086359;28;1239;-77
2022/05/08 02:46:53;;;;;;;;;;;;;;;;;;5106990;27;1981;-76
2022/05/08 02:49:19;;;;;;;;;;;;;;;;;;5102534;28;1225;-77
2022/05/08 02:51:44;;;;;;;;;;;;;;;;;;5099266;28;1140;-76
2022/05/08 02:54:09;;;;;;;;;;;;;;;;;;5092930;28;1264;-76
2022/05/08 02:59:22;;;;;;;;;;;;;;;;;;5102401;28;1039;-76
2022/05/08 03:01:47;;;;;;;;;;;;;;;;;;5068870;28;1313;-75
2022/05/08 03:04:12;;;;;;;;;;;;;;;;;;5086310;28;1112;-76
2022/05/08 03:06:38;;;;;;;;;;;;;;;;;;5084049;28;1953;-76
2022/05/08 03:09:03;;;;;;;;;;;;;;;;;;5085847;28;1214;-75
2022/05/08 03:11:29;;;;;;;;;;;;;;;;;;5070504;28;1305;-76
2022/05/08 03:13:55;;;;;;;;;;;;;;;;;;5108051;28;1246;-76
2022/05/08 03:16:25;;;;;;;;;;;;;;;;;;5107460;28;1180;-75
2022/05/08 03:18:51;;;;;;;;;;;;;;;;;;5107053;28;1055;-76
2022/05/08 03:21:16;;;;;;;;;;;;;;;;;;5105673;28;1203;-76
2022/05/08 03:23:42;;;;;;;;;;;;;;;;;;5101590;28;1200;-76
2022/05/08 03:26:08;;;;;;;;;;;;;;;;;;5093436;28;1955;-76
2022/05/08 03:28:34;;;;;;;;;;;;;;;;;;5104434;28;1355;-76
2022/05/08 03:30:59;;;;;;;;;;;;;;;;;;5088970;28;1172;-75
2022/05/08 03:33:28;;;;;;;;;;;;;;;;;;5085981;28;1171;-75
2022/05/08 03:35:53;;;;;;;;;;;;;;;;;;5067337;28;1306;-76
2022/05/08 03:38:27;;;;;;;;;;;;;;;;;;5082537;28;1117;-76
2022/05/08 03:41:02;;;;;;;;;;;;;;;;;;5067176;28;1187;-76
2022/05/08 03:43:28;;;;;;;;;;;;;;;;;;5065611;28;1341;-76
2022/05/08 03:45:53;;;;;;;;;;;;;;;;;;5085775;28;1918;-75
2022/05/08 03:48:19;;;;;;;;;;;;;;;;;;5085121;28;1188;-76
2022/05/08 03:50:45;;;;;;;;;;;;;;;;;;5084634;28;1108;-77
2022/05/08 03:53:10;;;;;;;;;;;;;;;;;;5095324;28;1162;-76
2022/05/08 03:55:39;;;;;;;;;;;;;;;;;;5102612;28;1198;-76
2022/05/08 03:58:04;;;;;;;;;;;;;;;;;;5103699;28;1159;-75
2022/05/08 04:00:32;;;;;;;;;;;;;;;;;;5102662;28;1176;-76
2022/05/08 04:03:04;;;;;;;;;;;;;;;;;;5105181;28;1199;-76
2022/05/08 04:05:29;;;;;;;;;;;;;;;;;;5102982;28;1887;-77
2022/05/08 04:07:55;;;;;;;;;;;;;;;;;;5086512;28;1261;-75
2022/05/08 04:10:20;;;;;;;;;;;;;;;;;;5085016;28;1253;-76
2022/05/08 04:12:47;;;;;;;;;;;;;;;;;;5097742;28;1321;-76
2022/05/08 04:17:59;;;;;;;;;;;;;;;;;;5104773;28;1301;-75
2022/05/08 04:20:24;;;;;;;;;;;;;;;;;;5104443;28;1377;-75
2022/05/08 04:25:37;;;;;;;;;;;;;;;;;;5103038;28;1980;-75
2022/05/08 04:28:04;;;;;;;;;;;;;;;;;;5100943;28;1210;-77
2022/05/08 04:30:32;;;;;;;;;;;;;;;;;;5085522;28;1227;-77
2022/05/08 04:33:00;;;;;;;;;;;;;;;;;;5067263;28;1335;-76
2022/05/08 04:35:34;;;;;;;;;;;;;;;;;;5083748;28;1250;-76
2022/05/08 04:38:06;;;;;;;;;;;;;;;;;;5083548;28;1262;-76
2022/05/08 04:40:41;;;;;;;;;;;;;;;;;;5082910;28;1207;-75
2022/05/08 04:43:06;;;;;;;;;;;;;;;;;;5080862;28;1210;-76
2022/05/08 04:45:31;;;;;;;;;;;;;;;;;;5081627;28;1891;-76
2022/05/08 04:47:59;;;;;;;;;;;;;;;;;;5106637;28;1306;-75
2022/05/08 04:50:25;;;;;;;;;;;;;;;;;;5087965;28;1160;-76
2022/05/08 04:52:52;;;;;;;;;;;;;;;;;;5103022;28;1478;-76
2022/05/08 04:55:18;;;;;;;;;;;;;;;;;;5101771;28;1205;-76
2022/05/08 04:57:43;;;;;;;;;;;;;;;;;;5098929;28;1195;-75
2022/05/08 05:00:08;;;;;;;;;;;;;;;;;;5103232;28;1176;-76
2022/05/08 05:02:34;;;;;;;;;;;;;;;;;;5101384;28;1396;-76
2022/05/08 05:05:00;;;;;;;;;;;;;;;;;;5086557;28;1882;-75
2022/05/08 05:07:25;;;;;;;;;;;;;;;;;;5104349;28;1047;-76
2022/05/08 05:09:51;;;;;;;;;;;;;;;;;;5082890;28;1165;-76
2022/05/08 05:12:16;;;;;;;;;;;;;;;;;;5084257;28;1296;-76
2022/05/08 05:14:41;;;;;;;;;;;;;;;;;;5102515;28;1188;-76
2022/05/08 05:17:07;;;;;;;;;;;;;;;;;;5105986;28;1187;-76
2022/05/08 05:19:32;;;;;;;;;;;;;;;;;;5105940;28;1092;-76
2022/05/08 05:21:57;;;;;;;;;;;;;;;;;;5087472;28;1439;-76
2022/05/08 05:24:22;;;;;;;;;;;;;;;;;;5092569;28;1160;-76
2022/05/08 05:26:48;;;;;;;;;;;;;;;;;;5104734;27;1878;-76
2022/05/08 05:29:14;;;;;;;;;;;;;;;;;;5107670;28;1243;-76
2022/05/08 05:31:40;;;;;;;;;;;;;;;;;;5087983;28;1194;-74
2022/05/08 05:34:05;;;;;;;;;;;;;;;;;;5096727;28;1171;-76
2022/05/08 05:36:36;;;;;;;;;;;;;;;;;;5106234;28;1270;-77
2022/05/08 05:39:02;;;;;;;;;;;;;;;;;;5103189;28;1294;-76
2022/05/08 05:41:27;;;;;;;;;;;;;;;;;;5092212;28;1391;-76
2022/05/08 05:43:53;;;;;;;;;;;;;;;;;;5088751;28;1466;-76
2022/05/08 05:49:02;;;;;;;;;;;;;;;;;;5109047;28;1043;-76
2022/05/08 05:51:28;;;;;;;;;;;;;;;;;;5109499;28;1163;-77
2022/05/08 05:53:53;;;;;;;;;;;;;;;;;;5073806;28;1391;-75
2022/05/08 05:56:21;;;;;;;;;;;;;;;;;;5088799;28;1168;-75
2022/05/08 05:58:46;;;;;;;;;;;;;;;;;;5084395;28;1293;-76
2022/05/08 06:01:12;;;;;;;;;;;;;;;;;;5086680;28;1261;-76
2022/05/08 06:03:38;;;;;;;;;;;;;;;;;;5101496;28;1176;-76
2022/05/08 06:06:04;;;;;;;;;;;;;;;;;;5090645;28;1885;-74
2022/05/08 06:08:29;;;;;;;;;;;;;;;;;;5084625;28;1180;-76
2022/05/08 06:11:00;;;;;;;;;;;;;;;;;;5094710;28;1177;-76
2022/05/08 06:13:25;;;;;;;;;;;;;;;;;;5107016;28;1300;-75
2022/05/08 06:15:51;;;;;;;;;;;;;;;;;;5108877;28;1207;-75
2022/05/08 06:18:16;;;;;;;;;;;;;;;;;;5106874;28;1306;-76
2022/05/08 06:20:41;;;;;;;;;;;;;;;;;;5107393;28;1066;-74
2022/05/08 06:23:07;;;;;;;;;;;;;;;;;;5105350;28;1151;-74
2022/05/08 06:25:35;;;;;;;;;;;;;;;;;;5107951;27;1893;-76
2022/05/08 06:28:01;;;;;;;;;;;;;;;;;;5102585;28;1247;-75
2022/05/08 06:30:26;;;;;;;;;;;;;;;;;;5106995;28;1293;-74
2022/05/08 06:32:51;;;;;;;;;;;;;;;;;;5101041;28;1075;-75
2022/05/08 06:35:17;;;;;;;;;;;;;;;;;;5090055;28;1167;-75
2022/05/08 06:37:42;;;;;;;;;;;;;;;;;;5085696;28;1195;-74
2022/05/08 06:40:08;;;;;;;;;;;;;;;;;;5086044;28;1105;-76
2022/05/08 06:42:33;;;;;;;;;;;;;;;;;;5097043;28;1152;-74
2022/05/08 06:44:59;;;;;;;;;;;;;;;;;;5086441;28;1970;-75
2022/05/08 06:47:24;;;;;;;;;;;;;;;;;;5085918;28;1257;-75
2022/05/08 06:49:52;;;;;;;;;;;;;;;;;;5093708;28;1072;-74
2022/05/08 06:52:17;;;;;;;;;;;;;;;;;;5107506;28;1164;-74
2022/05/08 06:54:43;;;;;;;;;;;;;;;;;;5087127;28;1206;-74
2022/05/08 06:57:08;;;;;;;;;;;;;;;;;;5082887;28;1093;-73
2022/05/08 07:02:17;;;;;;;;;;;;;;;;;;5087855;28;1001;-76
2022/05/08 07:04:45;;;;;;;;;;;;;;;;;;5083055;28;1230;-78
2022/05/08 07:07:11;;;;;;;;;;;;;;;;;;5100210;28;1894;-77
2022/05/08 07:09:36;;;;;;;;;;;;;;;;;;5106902;28;1155;-77
2022/05/08 07:12:01;;;;;;;;;;;;;;;;;;5099612;28;1342;-75
2022/05/08 07:14:26;;;;;;;;;;;;;;;;;;5107239;28;1211;-76
2022/05/08 07:16:52;;;;;;;;;;;;;;;;;;5105212;28;1073;-75
2022/05/08 07:19:17;;;;;;;;;;;;;;;;;;5089005;28;1418;-76
2022/05/08 07:21:45;;;;;;;;;;;;;;;;;;5105829;28;1142;-76
2022/05/08 07:24:10;;;;;;;;;;;;;;;;;;5102582;28;1260;-76
2022/05/08 07:26:38;;;;;;;;;;;;;;;;;;5084843;28;1919;-75
2022/05/08 07:29:04;;;;;;;;;;;;;;;;;;5104667;28;1012;-76
2022/05/08 07:31:31;;;;;;;;;;;;;;;;;;5106777;28;1159;-75
2022/05/08 07:36:40;;;;;;;;;;;;;;;;;;5106316;28;1022;-77
2022/05/08 07:39:05;;;;;;;;;;;;;;;;;;5080782;28;1274;-77
2022/05/08 07:41:30;;;;;;;;;;;;;;;;;;5097097;28;1133;-77
2022/05/08 07:43:55;;;;;;;;;;;;;;;;;;5088643;28;1092;-78
2022/05/08 07:46:21;;;;;;;;;;;;;;;;;;5083828;28;1963;-77
2022/05/08 07:48:51;;;;;;;;;;;;;;;;;;5082625;28;1360;-76
2022/05/08 07:51:16;;;;;;;;;;;;;;;;;;5086175;28;1132;-75
2022/05/08 07:53:42;;;;;;;;;;;;;;;;;;5102406;28;1308;-76
2022/05/08 07:56:07;;;;;;;;;;;;;;;;;;5097778;28;1138;-76
2022/05/08 07:58:32;;;;;;;;;;;;;;;;;;5103749;28;1256;-76
2022/05/08 08:00:58;;;;;;;;;;;;;;;;;;5104296;28;1155;-75
2022/05/08 08:03:24;;;;;;;;;;;;;;;;;;5106574;28;1241;-76
2022/05/08 08:05:54;;;;;;;;;;;;;;;;;;5103879;28;1889;-76
2022/05/08 08:08:23;;;;;;;;;;;;;;;;;;5085825;28;1318;-77
2022/05/08 08:10:52;;;;;;;;;;;;;;;;;;5083364;28;1136;-76
2022/05/08 08:13:19;;;;;;;;;;;;;;;;;;5084013;28;1220;-76
2022/05/08 08:15:45;;;;;;;;;;;;;;;;;;5090180;28;1222;-76
2022/05/08 08:18:14;;;;;;;;;;;;;;;;;;5081364;28;1100;-75
2022/05/08 08:20:39;;;;;;;;;;;;;;;;;;5085324;28;1198;-75
2022/05/08 08:23:06;;;;;;;;;;;;;;;;;;5084820;28;1366;-75
2022/05/08 08:25:35;;;;;;;;;;;;;;;;;;5101496;28;1874;-75
2022/05/08 08:28:01;;;;;;;;;;;;;;;;;;5080768;28;1223;-75
2022/05/08 08:30:27;;;;;;;;;;;;;;;;;;5100669;28;1155;-75
2022/05/08 08:32:53;;;;;;;;;;;;;;;;;;5081363;28;1140;-76
2022/05/08 08:35:18;;;;;;;;;;;;;;;;;;5083806;28;1218;-74
2022/05/08 08:37:44;;;;;;;;;;;;;;;;;;5078399;28;1296;-73
2022/05/08 08:40:09;;;;;;;;;;;;;;;;;;5099828;28;1025;-73
2022/05/08 08:42:39;;;;;;;;;;;;;;;;;;5100981;28;1127;-73
2022/05/08 08:47:57;;;;;;;;;;;;;;;;;;5104690;28;996;-77
2022/05/08 08:50:23;;;;;;;;;;;;;;;;;;5104783;28;1460;-74
2022/05/08 08:52:49;;;;;;;;;;;;;;;;;;5105080;28;1116;-74
2022/05/08 08:55:15;;;;;;;;;;;;;;;;;;5088083;28;1342;-77
2022/05/08 08:57:40;;;;;;;;;;;;;;;;;;5106195;28;1160;-76
2022/05/08 09:00:06;;;;;;;;;;;;;;;;;;5106414;28;1124;-76
2022/05/08 09:02:31;;;;;;;;;;;;;;;;;;5089408;28;1226;-77
2022/05/08 09:04:58;;;;;;;;;;;;;;;;;;5107606;28;1394;-78
2022/05/08 09:07:38;;;;;;;;;;;;;;;;;;5107208;28;1952;-77
2022/05/08 09:10:07;;;;;;;;;;;;;;;;;;5086176;28;1226;-76
2022/05/08 09:12:32;;;;;;;;;;;;;;;;;;5097415;28;1421;-77
2022/05/08 09:14:58;;;;;;;;;;;;;;;;;;5107716;28;1091;-78
2022/05/08 09:17:23;;;;;;;;;;;;;;;;;;5108277;27;1222;-77
2022/05/08 09:19:48;;;;;;;;;;;;;;;;;;5109586;28;1167;-77
2022/05/08 09:22:17;;;;;;;;;;;;;;;;;;5105615;28;1328;-76
2022/05/08 09:24:52;;;;;;;;;;;;;;;;;;5098341;28;1198;-76
2022/05/08 09:27:18;;;;;;;;;;;;;;;;;;5082995;28;1961;-76
2022/05/08 09:29:44;;;;;;;;;;;;;;;;;;5089676;28;1223;-76
2022/05/08 09:32:10;;;;;;;;;;;;;;;;;;5089121;28;1116;-75
2022/05/08 09:35:03;;;;;;;;;;;;;;;;;;5107208;28;1211;-76
2022/05/08 09:37:29;;;;;;;;;;;;;;;;;;5108598;28;1048;-77
2022/05/08 09:40:13;;;;;;;;;;;;;;;;;;5107302;28;1218;-77
2022/05/08 09:42:38;;;;;;;;;;;;;;;;;;5105202;28;1171;-76
2022/05/08 09:45:04;;;;;;;;;;;;;;;;;;5099008;28;1159;-77
2022/05/08 09:48:05;;;;;;;;;;;;;;;;;;5103893;28;1219;-77
2022/05/08 09:50:30;;;;;;;;;;;;;;;;;;5075705;28;1171;-78
2022/05/08 09:53:10;;;;;;;;;;;;;;;;;;5090681;28;1266;-77
2022/05/08 09:55:35;;;;;;;;;;;;;;;;;;5093876;28;1096;-76
2022/05/08 09:58:02;;;;;;;;;;;;;;;;;;5086401;28;1207;-77
2022/05/08 10:00:28;;;;;;;;;;;;;;;;;;5071621;28;1301;-76
2022/05/08 10:02:53;;;;;;;;;;;;;;;;;;5086115;28;1186;-75
2022/05/08 10:05:19;;;;;;;;;;;;;;;;;;5085400;28;1955;-75
2022/05/08 10:07:44;;;;;;;;;;;;;;;;;;5069206;28;1206;-76
2022/05/08 10:15:40;;;;;;;;;;;;;;;;;;5088151;28;666;-76
2022/05/08 10:18:21;;;;;;;;;;;;;;;;;;5084261;28;1192;-76
2022/05/08 10:21:01;;;;;;;;;;;;;;;;;;5087534;28;1191;-76
2022/05/08 10:23:36;;;;;;;;;;;;;;;;;;5083523;28;1312;-75
2022/05/08 10:26:17;;;;;;;;;;;;;;;;;;5081203;28;1898;-76
2022/05/08 10:29:02;;;;;;;;;;;;;;;;;;5105099;28;1183;-77
2022/05/08 10:31:44;;;;;;;;;;;;;;;;;;5095235;28;1162;-77
2022/05/08 10:34:10;;;;;;;;;;;;;;;;;;5105062;28;1249;-76
2022/05/08 10:36:35;;;;;;;;;;;;;;;;;;5106133;28;1175;-76
2022/05/08 10:39:19;;;;;;;;;;;;;;;;;;5105510;28;1247;-75
2022/05/08 10:41:45;;;;;;;;;;;;;;;;;;5102307;28;1225;-75
2022/05/08 10:44:30;;;;;;;;;;;;;;;;;;5086027;28;1182;-75
2022/05/08 10:47:16;;;;;;;;;;;;;;;;;;5108128;28;1971;-74
2022/05/08 10:49:41;;;;;;;;;;;;;;;;;;5105721;28;1275;-76
2022/05/08 10:52:07;;;;;;;;;;;;;;;;;;5096739;28;1200;-83
2022/05/08 10:54:33;;;;;;;;;;;;;;;;;;5100538;28;1242;-83
2022/05/08 10:56:58;;;;;;;;;;;;;;;;;;5096868;28;1274;-83
2022/05/08 10:59:43;;;;;;;;;;;;;;;;;;5099002;28;1167;-82
2022/05/08 11:02:08;;;;;;;;;;;;;;;;;;5088940;28;1241;-83
2022/05/08 11:04:49;;;;;;;;;;;;;;;;;;5087421;28;1243;-80
2022/05/08 11:07:21;;;;;;;;;;;;;;;;;;5097779;28;1897;-83
2022/05/08 11:09:46;;;;;;;;;;;;;;;;;;5096167;28;1215;-82
2022/05/08 11:12:11;;;;;;;;;;;;;;;;;;5091900;28;1191;-81
2022/05/08 11:14:36;;;;;;;;;;;;;;;;;;5095080;28;1224;-82
2022/05/08 11:17:16;;;;;;;;;;;;;;;;;;5075668;28;1200;-82
2022/05/08 11:19:53;;;;;;;;;;;;;;;;;;5106272;28;1105;-81
2022/05/08 11:22:18;;;;;;;;;;;;;;;;;;5102991;28;1472;-81
2022/05/08 11:24:50;;;;;;;;;;;;;;;;;;5091973;28;1242;-79
2022/05/08 11:27:15;;;;;;;;;;;;;;;;;;5090910;28;1902;-80
2022/05/08 11:29:52;;;;;;;;;;;;;;;;;;5068127;28;1299;-80
2022/05/08 11:38:11;;;;;;;;;;;;;;;;;;5093930;28;1027;-81
2022/05/08 11:40:40;;;;;;;;;;;;;;;;;;5081361;28;1238;-80
2022/05/08 11:43:29;;;;;;;;;;;;;;;;;;5089196;28;1263;-83
2022/05/08 11:46:01;;;;;;;;;;;;;;;;;;5094544;28;2007;-81
2022/05/08 11:48:34;;;;;;;;;;;;;;;;;;5093585;28;1251;-83
2022/05/08 11:51:00;;;;;;;;;;;;;;;;;;5097482;28;1249;-81
2022/05/08 11:53:25;;;;;;;;;;;;;;;;;;5084821;28;1176;-82
2022/05/08 11:55:53;;;;;;;;;;;;;;;;;;5097394;28;1432;-84
2022/05/08 11:58:31;;;;;;;;;;;;;;;;;;5095369;28;1399;-83
2022/05/08 12:00:56;;;;;;;;;;;;;;;;;;5103407;28;1435;-90
2022/05/08 12:03:25;;;;;;;;;;;;;;;;;;5096486;28;1326;-90
2022/05/08 12:06:14;;;;;;;;;;;;;;;;;;5092032;28;1947;-87
2022/05/08 12:08:39;;;;;;;;;;;;;;;;;;5105885;28;1312;-84
2022/05/08 12:11:05;;;;;;;;;;;;;;;;;;5103484;28;1253;-87
2022/05/08 12:13:34;;;;;;;;;;;;;;;;;;5106177;28;1326;-84
2022/05/08 12:16:17;;;;;;;;;;;;;;;;;;5107532;28;794;-83
2022/05/08 12:19:03;;;;;;;;;;;;;;;;;;5106203;28;1341;-82
2022/05/08 12:21:28;;;;;;;;;;;;;;;;;;5091635;28;1273;-85
2022/05/08 12:23:53;;;;;;;;;;;;;;;;;;5063999;28;1180;-86
2022/05/08 12:26:20;;;;;;;;;;;;;;;;;;5069757;28;1921;-82
2022/05/08 12:28:45;;;;;;;;;;;;;;;;;;5052273;28;1211;-77
2022/05/08 12:31:17;;;;;;;;;;;;;;;;;;5051654;28;1231;-83
2022/05/08 12:33:44;;;;;;;;;;;;;;;;;;5068581;28;1235;-87
2022/05/08 12:36:09;;;;;;;;;;;;;;;;;;5071980;28;1152;-84
2022/05/08 12:38:34;;;;;;;;;;;;;;;;;;5084909;28;1124;-78
2022/05/08 12:41:00;;;;;;;;;;;;;;;;;;5063217;28;1069;-82
2022/05/08 12:43:30;;;;;;;;;;;;;;;;;;5085350;28;1159;-79
2022/05/08 12:45:55;;;;;;;;;;;;;;;;;;5086251;28;1997;-80
2022/05/08 12:48:21;;;;;;;;;;;;;;;;;;5065238;28;1176;-80
2022/05/08 12:50:51;;;;;;;;;;;;;;;;;;5083964;28;1143;-80
2022/05/08 12:53:19;;;;;;;;;;;;;;;;;;5082527;28;1104;-81
2022/05/08 12:55:44;;;;;;;;;;;;;;;;;;5067117;28;1203;-78
2022/05/08 13:00:53;;;;;;;;;;;;;;;;;;5085678;28;1047;-78
2022/05/08 13:03:21;;;;;;;;;;;;;;;;;;5047932;28;1312;-81
2022/05/08 13:05:49;;;;;;;;;;;;;;;;;;5086081;28;1897;-80
2022/05/08 13:08:21;;;;;;;;;;;;;;;;;;5066946;28;1278;-79
2022/05/08 13:10:46;;;;;;;;;;;;;;;;;;5065221;28;1376;-79
2022/05/08 13:13:11;;;;;;;;;;;;;;;;;;5047248;28;1285;-79
2022/05/08 13:15:37;;;;;;;;;;;;;;;;;;5065393;28;1395;-82
2022/05/08 13:18:02;;;;;;;;;;;;;;;;;;5066918;28;1088;-81
2022/05/08 13:20:28;;;;;;;;;;;;;;;;;;5070094;28;1157;-85
2022/05/08 13:22:53;;;;;;;;;;;;;;;;;;5068063;28;1188;-81
2022/05/08 13:25:22;;;;;;;;;;;;;;;;;;5048463;28;1902;-86
2022/05/08 13:27:47;;;;;;;;;;;;;;;;;;5081993;28;1218;-84
2022/05/08 13:30:12;;;;;;;;;;;;;;;;;;5093095;28;1093;-83
2022/05/08 13:32:39;;;;;;;;;;;;;;;;;;5070800;28;1350;-83
2022/05/08 13:35:05;;;;;;;;;;;;;;;;;;5068220;28;1286;-76
2022/05/08 13:37:30;;;;;;;;;;;;;;;;;;5100232;28;1310;-83
2022/05/08 13:39:59;;;;;;;;;;;;;;;;;;5081550;28;1348;-86
2022/05/08 13:42:25;;;;;;;;;;;;;;;;;;5098493;28;1322;-77
2022/05/08 13:44:56;;;;;;;;;;;;;;;;;;5096972;28;1235;-82
2022/05/08 13:47:25;;;;;;;;;;;;;;;;;;5078776;28;1967;-77
2022/05/08 13:49:54;;;;;;;;;;;;;;;;;;5094169;28;1151;-81
2022/05/08 13:52:26;;;;;;;;;;;;;;;;;;5095415;28;1389;-79
2022/05/08 13:54:51;;;;;;;;;;;;;;;;;;5086321;28;1237;-82
2022/05/08 13:57:16;;;;;;;;;;;;;;;;;;5099265;28;1132;-82
2022/05/08 13:59:42;;;;;;;;;;;;;;;;;;5092077;28;1104;-75
2022/05/08 14:02:07;;;;;;;;;;;;;;;;;;5083638;28;1128;-74
2022/05/08 14:04:32;;;;;;;;;;;;;;;;;;5074788;28;1239;-73
2022/05/08 14:06:58;;;;;;;;;;;;;;;;;;5103976;28;1885;-75
2022/05/08 14:09:32;;;;;;;;;;;;;;;;;;5102227;28;1376;-74
2022/05/08 14:11:58;;;;;;;;;;;;;;;;;;5084399;28;1294;-74
2022/05/08 14:14:27;;;;;;;;;;;;;;;;;;5085009;28;1352;-75
2022/05/08 14:16:52;;;;;;;;;;;;;;;;;;5072724;28;1344;-73
2022/05/08 14:19:17;;;;;;;;;;;;;;;;;;5074270;28;1243;-83
2022/05/08 14:21:43;;;;;;;;;;;;;;;;;;5086745;28;1063;-76
2022/05/08 14:24:08;;;;;;;;;;;;;;;;;;5064315;28;1171;-74
2022/05/08 14:26:33;;;;;;;;;;;;;;;;;;5076185;28;1953;-76
2022/05/08 14:28:58;;;;;;;;;;;;;;;;;;5100805;28;1361;-74
2022/05/08 14:36:52;;;;;;;;;;;;;;;;;;5106242;28;1030;-75
2022/05/08 14:39:17;;;;;;;;;;;;;;;;;;5091509;28;1184;-74
2022/05/08 14:41:45;;;;;;;;;;;;;;;;;;5063276;28;1439;-75
2022/05/08 14:44:10;;;;;;;;;;;;;;;;;;5084966;28;1192;-74
2022/05/08 14:46:35;;;;;;;;;;;;;;;;;;5082783;28;2029;-75
2022/05/08 14:49:00;;;;;;;;;;;;;;;;;;5068076;28;1193;-74
2022/05/08 14:51:29;;;;;;;;;;;;;;;;;;5084467;28;1419;-75
2022/05/08 14:53:55;;;;;;;;;;;;;;;;;;5065792;28;1322;-76
2022/05/08 14:56:22;;;;;;;;;;;;;;;;;;5082425;28;1160;-74
2022/05/08 14:58:48;;;;;;;;;;;;;;;;;;5082941;28;1202;-75
2022/05/08 15:01:13;;;;;;;;;;;;;;;;;;5091386;28;1516;-75
2022/05/08 15:03:39;;;;;;;;;;;;;;;;;;5102155;28;1346;-75
2022/05/08 15:06:04;;;;;;;;;;;;;;;;;;5106707;28;1933;-75
2022/05/08 15:08:33;;;;;;;;;;;;;;;;;;5102303;27;1163;-75
2022/05/08 15:11:01;;;;;;;;;;;;;;;;;;5103668;28;1210;-75
2022/05/08 15:13:33;;;;;;;;;;;;;;;;;;5104301;28;1257;-73
2022/05/08 15:15:58;;;;;;;;;;;;;;;;;;5104389;28;1226;-75
2022/05/08 15:21:07;;;;;;;;;;;;;;;;;;5093251;28;984;-74
2022/05/08 15:23:35;;;;;;;;;;;;;;;;;;5065027;28;1210;-75
2022/05/08 15:26:01;;;;;;;;;;;;;;;;;;5101317;28;1948;-75
2022/05/08 15:28:26;;;;;;;;;;;;;;;;;;5104826;28;1290;-76
2022/05/08 15:30:53;;;;;;;;;;;;;;;;;;5102833;27;1233;-75
2022/05/08 15:33:18;;;;;;;;;;;;;;;;;;5097990;28;1297;-75
2022/05/08 15:35:44;;;;;;;;;;;;;;;;;;5081940;28;1140;-75
2022/05/08 15:38:09;;;;;;;;;;;;;;;;;;5081058;28;1135;-75
2022/05/08 15:40:37;;;;;;;;;;;;;;;;;;5094783;28;1180;-74
2022/05/08 15:43:05;;;;;;;;;;;;;;;;;;5100378;28;1352;-74
2022/05/08 15:45:37;;;;;;;;;;;;;;;;;;5086341;28;1998;-74
2022/05/08 15:48:02;;;;;;;;;;;;;;;;;;5104511;28;1128;-74
2022/05/08 15:50:28;;;;;;;;;;;;;;;;;;5097244;28;1163;-74
2022/05/08 15:52:54;;;;;;;;;;;;;;;;;;5081536;28;1203;-75
2022/05/08 15:55:27;;;;;;;;;;;;;;;;;;5066576;28;1214;-75
2022/05/08 15:57:55;;;;;;;;;;;;;;;;;;5063862;28;1313;-76
2022/05/08 16:00:21;;;;;;;;;;;;;;;;;;5086970;28;1242;-76
2022/05/08 16:02:46;;;;;;;;;;;;;;;;;;5080537;28;1189;-76
2022/05/08 16:05:12;;;;;;;;;;;;;;;;;;5084127;28;1153;-74
2022/05/08 16:07:38;;;;;;;;;;;;;;;;;;5082088;28;1951;-75
2022/05/08 16:10:03;;;;;;;;;;;;;;;;;;5083324;28;1119;-75
2022/05/08 16:23:11;;;;;;;;;;;;;;;;;;5081180;28;1295;-76
2022/05/08 16:23:30;;;;;;;;;;;;;;;;;;5084387;28;1161;-73
2022/05/08 16:25:59;;;;;;;;;;;;;;;;;;5078976;28;1901;-75
2022/05/08 16:28:25;;;;;;;;;;;;;;;;;;5066827;28;1318;-74
2022/05/08 16:30:53;;;;;;;;;;;;;;;;;;5081437;28;1307;-75
2022/05/08 16:33:18;;;;;;;;;;;;;;;;;;5085101;28;1478;-75
2022/05/08 16:35:45;;;;;;;;;;;;;;;;;;5080226;28;1174;-75
2022/05/08 16:38:12;;;;;;;;;;;;;;;;;;5081037;28;1195;-75
2022/05/08 16:40:43;;;;;;;;;;;;;;;;;;5081193;28;1771;-75
2022/05/08 16:43:09;;;;;;;;;;;;;;;;;;5101374;28;1041;-74
2022/05/08 16:45:34;;;;;;;;;;;;;;;;;;5085676;28;1909;-74
2022/05/08 16:48:03;;;;;;;;;;;;;;;;;;5100701;28;1242;-75
2022/05/08 16:50:31;;;;;;;;;;;;;;;;;;5105281;28;1183;-76
2022/05/08 16:52:57;;;;;;;;;;;;;;;;;;5079047;28;1053;-74
2022/05/08 16:55:22;;;;;;;;;;;;;;;;;;5083623;28;1453;-75
2022/05/08 16:57:47;;;;;;;;;;;;;;;;;;5097941;28;1342;-75
2022/05/08 17:00:13;;;;;;;;;;;;;;;;;;5103704;28;1238;-75
2022/05/08 17:02:47;;;;;;;;;;;;;;;;;;5103723;28;1132;-75
2022/05/08 17:05:13;;;;;;;;;;;;;;;;;;5103594;28;1174;-75
2022/05/08 17:07:41;;;;;;;;;;;;;;;;;;5102331;28;1957;-75
2022/05/08 17:10:07;;;;;;;;;;;;;;;;;;5100482;28;1143;-75
2022/05/08 17:12:34;;;;;;;;;;;;;;;;;;5100321;28;1167;-74
2022/05/08 17:15:00;;;;;;;;;;;;;;;;;;5086616;28;1571;-75
2022/05/08 17:17:25;;;;;;;;;;;;;;;;;;5106170;28;1365;-74
2022/05/08 17:19:51;;;;;;;;;;;;;;;;;;5103386;28;1170;-75
2022/05/08 17:22:16;;;;;;;;;;;;;;;;;;5086600;28;1183;-76
2022/05/08 17:24:45;;;;;;;;;;;;;;;;;;5064945;28;1207;-76
2022/05/08 17:29:54;;;;;;;;;;;;;;;;;;5071879;28;1052;-75
2022/05/08 17:32:20;;;;;;;;;;;;;;;;;;5069790;28;1189;-76
2022/05/08 17:34:45;;;;;;;;;;;;;;;;;;5068214;28;1174;-74
2022/05/08 17:37:11;;;;;;;;;;;;;;;;;;5053885;28;1337;-76
2022/05/08 17:39:36;;;;;;;;;;;;;;;;;;5085733;28;1049;-74
2022/05/08 17:42:02;;;;;;;;;;;;;;;;;;5064115;28;1080;-74
2022/05/08 17:44:27;;;;;;;;;;;;;;;;;;5070115;28;1298;-75
2022/05/08 17:46:52;;;;;;;;;;;;;;;;;;5085126;28;1914;-75
2022/05/08 17:49:19;;;;;;;;;;;;;;;;;;5086879;28;1155;-75
2022/05/08 17:51:48;;;;;;;;;;;;;;;;;;5051719;28;1282;-75
2022/05/08 17:54:13;;;;;;;;;;;;;;;;;;5066086;28;1519;-74
2022/05/08 17:56:39;;;;;;;;;;;;;;;;;;5049527;28;1285;-74
2022/05/08 17:59:04;;;;;;;;;;;;;;;;;;5068431;28;1206;-74